Time;durP1;ratioP1;P1;durP2;ratioP2;P2;SDS_P1;SDS_P2;PMS_P1;PMS_P2;Temp;Humidity;BMP_temperature;BMP_pressure;BME280_temperature;BME280_humidity;BME280_pressure;Samples;Min_cycle;Max_cycle;Signal;HPM_P1;HPM_P2
2022/12/22 03:28:11;;;;;;;4.77;0.73;;;25.00;99.90;;;;;;4927740;29;20252;-78
2022/12/22 03:30:38;;;;;;;3.13;1.07;;;25.00;99.90;;;;;;4934020;29;20252;-74
2022/12/22 03:33:06;;;;;;;4.03;0.90;;;25.10;99.90;;;;;;4933762;29;20193;-78
2022/12/22 03:35:33;;;;;;;5.13;0.90;;;25.10;99.90;;;;;;4934857;29;20232;-74
2022/12/22 03:38:02;;;;;;;3.00;0.77;;;25.10;99.90;;;;;;4935933;29;20214;-73
2022/12/22 03:40:31;;;;;;;4.57;0.93;;;25.10;99.90;;;;;;4939502;29;20204;-77
2022/12/22 03:48:29;;;;;;;3.27;0.80;;;26.10;99.90;;;;;;4934359;29;20697;-79
2022/12/22 03:50:56;;;;;;;4.07;1.27;;;26.40;99.90;;;;;;4933768;29;20628;-78
2022/12/22 03:53:24;;;;;;;4.73;0.77;;;26.50;99.90;;;;;;4934435;29;20185;-78
2022/12/22 03:55:51;;;;;;;2.30;0.80;;;26.10;99.90;;;;;;4919994;29;20204;-75
2022/12/22 03:58:18;;;;;;;3.27;1.03;;;25.70;99.90;;;;;;4937311;29;20323;-78
2022/12/22 04:00:46;;;;;;;6.67;1.00;;;25.40;99.90;;;;;;4937517;29;20185;-74
2022/12/22 04:03:13;;;;;;;4.47;1.00;;;25.10;99.90;;;;;;4937028;29;20199;-67
2022/12/22 04:05:41;;;;;;;3.03;0.80;;;24.90;99.90;;;;;;4936703;29;20669;-74
2022/12/22 04:08:08;;;;;;;4.73;1.13;;;24.80;99.90;;;;;;4937157;29;20295;-72
2022/12/22 04:13:21;;;;;;;6.57;1.23;;;24.50;99.90;;;;;;4937005;29;20570;-77
2022/12/22 04:15:48;;;;;;;5.20;1.00;;;24.40;99.90;;;;;;4936804;29;20193;-76
2022/12/22 04:18:16;;;;;;;10.20;1.60;;;24.30;99.90;;;;;;4936835;29;20642;-76
2022/12/22 04:20:43;;;;;;;1.67;0.80;;;24.50;99.90;;;;;;4936889;29;20224;-74
2022/12/22 04:23:10;;;;;;;5.93;1.13;;;24.60;99.90;;;;;;4935517;29;20201;-77
2022/12/22 04:25:38;;;;;;;3.23;1.03;;;24.60;99.90;;;;;;4936899;29;20639;-79
2022/12/22 04:28:05;;;;;;;7.33;1.00;;;24.60;99.90;;;;;;4951423;29;20230;-79
2022/12/22 04:30:32;;;;;;;3.33;1.03;;;24.60;99.90;;;;;;4956338;29;20197;-79
2022/12/22 04:33:00;;;;;;;8.40;1.20;;;24.30;99.90;;;;;;4956062;29;20176;-74
2022/12/22 04:35:27;;;;;;;3.47;1.13;;;24.00;99.90;;;;;;4955396;29;20187;-79
2022/12/22 04:37:54;;;;;;;3.97;0.83;;;24.10;99.90;;;;;;4944238;29;20180;-78
2022/12/22 04:40:22;;;;;;;7.80;1.00;;;24.20;99.90;;;;;;4936956;29;20185;-76
2022/12/22 04:42:49;;;;;;;3.33;0.90;;;24.20;99.90;;;;;;4936139;29;20176;-79
2022/12/22 04:45:17;;;;;;;12.20;1.33;;;24.30;99.90;;;;;;4936739;29;20183;-67
2022/12/22 04:47:44;;;;;;;4.50;0.93;;;24.10;99.90;;;;;;4935836;29;20935;-77
2022/12/22 04:50:11;;;;;;;7.63;1.20;;;23.90;99.90;;;;;;4942989;29;20645;-67
2022/12/22 04:52:39;;;;;;;2.53;1.27;;;23.90;99.90;;;;;;4955656;29;20176;-70
2022/12/22 04:55:08;;;;;;;7.70;1.30;;;23.70;99.90;;;;;;4941974;29;20188;-67
2022/12/22 04:57:36;;;;;;;4.27;1.17;;;23.60;99.90;;;;;;4935067;29;20351;-74
2022/12/22 05:00:05;;;;;;;7.87;1.27;;;23.40;99.90;;;;;;4936095;29;20236;-72
2022/12/22 05:02:32;;;;;;;8.50;1.37;;;23.50;99.90;;;;;;4936534;29;20238;-72
2022/12/22 05:05:00;;;;;;;1.03;0.80;;;23.50;99.90;;;;;;4935634;29;20239;-71
2022/12/22 05:07:27;;;;;;;3.90;1.20;;;23.40;99.90;;;;;;4950444;29;20666;-73
2022/12/22 05:09:54;;;;;;;4.27;1.13;;;23.30;99.90;;;;;;4955516;29;20187;-74
2022/12/22 05:15:07;;;;;;;3.27;1.10;;;23.30;99.90;;;;;;4946366;29;20203;-73
2022/12/22 05:17:35;;;;;;;2.40;0.80;;;23.20;99.90;;;;;;4936133;29;20184;-74
2022/12/22 05:20:02;;;;;;;4.50;1.00;;;23.20;99.90;;;;;;4935148;29;20188;-72
2022/12/22 05:22:30;;;;;;;4.80;1.10;;;23.20;99.90;;;;;;4935327;29;20265;-73
2022/12/22 05:24:57;;;;;;;4.97;0.97;;;23.20;99.90;;;;;;4934432;29;20522;-72
2022/12/22 05:27:24;;;;;;;6.07;1.20;;;23.10;99.90;;;;;;4935184;29;20592;-73
2022/12/22 05:29:52;;;;;;;3.67;1.10;;;22.90;99.90;;;;;;4935649;29;20195;-73
2022/12/22 05:32:19;;;;;;;4.53;1.00;;;22.70;99.90;;;;;;4935554;29;20187;-73
2022/12/22 05:34:46;;;;;;;5.33;1.30;;;22.60;99.90;;;;;;4935457;29;20212;-73
2022/12/22 05:37:14;;;;;;;3.87;1.20;;;22.30;99.90;;;;;;4935394;29;20188;-73
2022/12/22 05:39:41;;;;;;;2.47;1.10;;;22.10;99.90;;;;;;4935220;29;20291;-72
2022/12/22 05:42:09;;;;;;;5.07;1.20;;;22.10;99.90;;;;;;4935269;29;20188;-72
2022/12/22 05:44:36;;;;;;;5.10;0.80;;;22.10;99.90;;;;;;4935118;29;20203;-72
2022/12/22 05:47:04;;;;;;;5.10;1.00;;;22.00;99.90;;;;;;4935004;29;20196;-72
2022/12/22 05:49:31;;;;;;;4.20;1.10;;;22.00;99.90;;;;;;4934507;29;20338;-68
2022/12/22 05:51:58;;;;;;;4.67;1.30;;;22.00;99.90;;;;;;4935179;29;20573;-72
2022/12/22 05:54:26;;;;;;;2.50;1.20;;;22.00;99.90;;;;;;4933610;29;20220;-71
2022/12/22 05:56:53;;;;;;;3.60;1.27;;;22.00;99.90;;;;;;4934058;29;20228;-71
2022/12/22 05:59:25;;;;;;;5.90;1.37;;;21.90;99.90;;;;;;4935139;29;20223;-71
2022/12/22 06:01:52;;;;;;;2.80;1.03;;;21.90;99.90;;;;;;4935402;29;20191;-73
2022/12/22 06:04:19;;;;;;;6.53;1.30;;;21.90;99.90;;;;;;4934423;29;20184;-72
2022/12/22 06:06:47;;;;;;;2.70;1.07;;;21.80;99.90;;;;;;4934497;29;20240;-73
2022/12/22 06:09:14;;;;;;;4.50;1.23;;;21.70;99.90;;;;;;4932520;29;20232;-73
2022/12/22 06:11:41;;;;;;;3.90;1.10;;;21.60;99.90;;;;;;4917012;29;20192;-71
2022/12/22 06:14:09;;;;;;;3.90;1.17;;;21.60;99.90;;;;;;4935375;29;20222;-73
2022/12/22 06:16:36;;;;;;;3.67;1.00;;;21.60;99.90;;;;;;4936370;29;20669;-71
2022/12/22 06:19:04;;;;;;;3.67;1.00;;;21.60;99.90;;;;;;4936092;29;20195;-73
2022/12/22 06:21:31;;;;;;;3.97;1.10;;;21.50;99.90;;;;;;4936083;29;20204;-77
2022/12/22 06:23:59;;;;;;;6.30;1.30;;;21.50;99.90;;;;;;4936176;29;20184;-77
2022/12/22 06:26:26;;;;;;;3.70;1.10;;;21.50;99.90;;;;;;4936049;29;20263;-74
2022/12/22 06:28:53;;;;;;;3.77;1.40;;;21.50;99.90;;;;;;4935910;29;20248;-74
2022/12/22 06:31:21;;;;;;;4.53;1.17;;;21.50;99.90;;;;;;4935986;29;20181;-71
2022/12/22 06:33:48;;;;;;;6.17;1.43;;;21.50;99.90;;;;;;4936008;29;20179;-76
2022/12/22 06:36:16;;;;;;;4.80;1.80;;;21.40;99.90;;;;;;4935523;29;20176;-68
2022/12/22 06:38:43;;;;;;;5.03;1.70;;;21.40;99.90;;;;;;4935877;29;20559;-75
2022/12/22 06:41:11;;;;;;;4.67;2.37;;;21.40;99.90;;;;;;4935898;29;20185;-70
2022/12/22 06:43:38;;;;;;;2.37;0.90;;;21.50;99.90;;;;;;4936324;29;20222;-71
2022/12/22 06:46:05;;;;;;;3.80;1.17;;;21.40;99.90;;;;;;4934554;29;20177;-73
2022/12/22 06:48:33;;;;;;;3.67;0.97;;;21.40;99.90;;;;;;4934457;29;20308;-71
2022/12/22 06:51:00;;;;;;;2.83;1.10;;;21.30;99.90;;;;;;4935617;29;20207;-67
2022/12/22 06:53:28;;;;;;;5.23;1.20;;;21.30;99.90;;;;;;4935838;29;20643;-67
2022/12/22 06:55:55;;;;;;;7.43;1.20;;;20.90;99.90;;;;;;4935643;29;20189;-77
2022/12/22 06:58:23;;;;;;;2.17;0.80;;;20.60;99.90;;;;;;4935814;29;20232;-79
2022/12/22 07:00:50;;;;;;;6.67;1.33;;;20.40;99.90;;;;;;4935909;29;20180;-73
2022/12/22 07:03:17;;;;;;;3.37;0.97;;;20.20;99.90;;;;;;4935778;29;20177;-74
2022/12/22 07:05:45;;;;;;;5.57;1.00;;;20.20;99.90;;;;;;4935881;29;20193;-72
2022/12/22 07:08:12;;;;;;;9.07;1.53;;;20.20;99.90;;;;;;4935545;29;20671;-75
2022/12/22 07:10:58;;;;;;;4.80;1.20;;;20.10;99.90;;;;;;4936788;29;20180;-71
2022/12/22 07:13:28;;;;;;;3.37;1.00;;;20.00;99.90;;;;;;4937644;29;20240;-75
2022/12/22 07:15:56;;;;;;;3.97;1.73;;;20.00;99.90;;;;;;4938675;29;20619;-78
2022/12/22 07:18:23;;;;;;;10.00;1.90;;;20.10;99.90;;;;;;4941912;29;20197;-75
2022/12/22 07:20:50;;;;;;;6.07;1.20;;;20.10;99.90;;;;;;4941800;29;20248;-76
2022/12/22 07:23:18;;;;;;;4.33;1.30;;;20.20;99.90;;;;;;4943730;29;20185;-73
2022/12/22 07:25:45;;;;;;;4.07;1.40;;;20.00;99.90;;;;;;4944780;29;20184;-79
2022/12/22 07:28:13;;;;;;;5.47;1.10;;;20.00;99.90;;;;;;4943723;29;20211;-72
2022/12/22 07:30:40;;;;;;;2.63;1.53;;;19.90;99.90;;;;;;4944909;29;20719;-73
2022/12/22 07:33:07;;;;;;;1.93;1.10;;;19.90;99.90;;;;;;4945173;29;20179;-69
2022/12/22 07:35:35;;;;;;;5.47;1.70;;;19.80;99.90;;;;;;4949670;29;20177;-67
2022/12/22 07:38:02;;;;;;;5.20;1.57;;;19.80;99.90;;;;;;4946720;29;20178;-74
2022/12/22 07:40:30;;;;;;;4.77;1.27;;;19.90;99.90;;;;;;4944679;29;20534;-72
2022/12/22 07:43:01;;;;;;;6.90;1.40;;;19.80;99.90;;;;;;4947512;29;20179;-71
2022/12/22 07:45:29;;;;;;;4.97;1.40;;;19.60;99.90;;;;;;4948833;29;20180;-71
2022/12/22 07:48:01;;;;;;;4.77;1.40;;;19.50;99.90;;;;;;4948656;29;20201;-75
2022/12/22 07:50:28;;;;;;;4.10;1.33;;;19.40;99.90;;;;;;4933027;29;20189;-77
2022/12/22 07:53:00;;;;;;;3.80;1.40;;;19.40;99.90;;;;;;4948118;29;20182;-71
2022/12/22 07:55:30;;;;;;;6.40;1.70;;;19.40;99.90;;;;;;4946636;29;20229;-76
2022/12/22 07:57:58;;;;;;;3.97;1.30;;;19.40;99.90;;;;;;4946925;29;20224;-73
2022/12/22 08:00:26;;;;;;;2.43;1.33;;;19.40;99.90;;;;;;4945691;29;20203;-70
2022/12/22 08:02:55;;;;;;;4.77;1.27;;;19.40;99.90;;;;;;4945071;29;20193;-73
2022/12/22 08:05:24;;;;;;;6.90;1.60;;;19.30;99.90;;;;;;4945419;29;20239;-76
2022/12/22 08:07:52;;;;;;;7.93;2.00;;;19.20;99.90;;;;;;4944976;29;20568;-67
2022/12/22 08:10:21;;;;;;;4.27;1.37;;;19.20;99.90;;;;;;4943247;29;20223;-71
2022/12/22 08:12:48;;;;;;;6.60;1.70;;;19.20;99.90;;;;;;4941612;29;20251;-70
2022/12/22 08:15:16;;;;;;;4.30;1.53;;;19.10;99.90;;;;;;4940206;29;20181;-69
2022/12/22 08:17:43;;;;;;;8.20;1.67;;;19.10;99.90;;;;;;4938897;29;20282;-76
2022/12/22 08:20:11;;;;;;;2.53;1.33;;;19.10;99.90;;;;;;4938025;29;20232;-74
2022/12/22 08:22:38;;;;;;;3.43;1.20;;;19.10;99.90;;;;;;4937769;29;20381;-69
2022/12/22 08:25:06;;;;;;;3.37;1.20;;;19.10;99.90;;;;;;4938804;29;20487;-74
2022/12/22 08:27:39;;;;;;;4.17;1.30;;;19.10;99.90;;;;;;4939993;29;20189;-74
2022/12/22 08:30:08;;;;;;;2.93;1.23;;;19.10;99.90;;;;;;4939974;29;20241;-73
2022/12/22 08:32:38;;;;;;;5.73;1.60;;;19.10;99.90;;;;;;4939155;29;20202;-75
2022/12/22 08:35:07;;;;;;;9.67;1.87;;;19.20;99.90;;;;;;4938323;29;20204;-71
2022/12/22 08:37:40;;;;;;;6.17;1.73;;;19.20;99.90;;;;;;4938046;29;20181;-67
2022/12/22 08:40:13;;;;;;;5.17;1.73;;;19.10;99.90;;;;;;4937154;29;20256;-73
2022/12/22 08:42:41;;;;;;;4.93;1.40;;;19.10;99.90;;;;;;4937679;29;20188;-73
2022/12/22 08:45:10;;;;;;;5.97;1.60;;;19.10;99.90;;;;;;4937261;29;20228;-79
2022/12/22 08:47:38;;;;;;;4.03;1.57;;;19.10;99.90;;;;;;4937471;29;20703;-78
2022/12/22 08:50:06;;;;;;;2.97;1.50;;;19.10;99.90;;;;;;4937518;29;20597;-67
2022/12/22 08:52:33;;;;;;;6.13;1.73;;;19.10;99.90;;;;;;4937372;29;20186;-68
2022/12/22 08:55:00;;;;;;;7.50;1.77;;;19.00;99.90;;;;;;4937357;29;20185;-71
2022/12/22 08:57:28;;;;;;;4.53;1.70;;;19.00;99.90;;;;;;4936988;29;20228;-70
2022/12/22 08:59:55;;;;;;;4.60;1.77;;;19.00;99.90;;;;;;4937138;29;20237;-70
2022/12/22 09:02:23;;;;;;;5.33;2.13;;;18.90;99.90;;;;;;4937239;29;20182;-68
2022/12/22 09:04:50;;;;;;;7.73;2.10;;;18.90;99.90;;;;;;4937236;29;20220;-68
2022/12/22 09:07:17;;;;;;;4.13;1.80;;;18.80;99.90;;;;;;4936986;29;20185;-75
2022/12/22 09:09:45;;;;;;;7.90;2.50;;;18.80;99.90;;;;;;4937087;29;20686;-67
2022/12/22 09:12:12;;;;;;;7.47;1.73;;;18.80;99.90;;;;;;4937649;29;20264;-66
2022/12/22 09:14:40;;;;;;;5.70;1.97;;;18.90;99.90;;;;;;4936727;29;20589;-68
2022/12/22 09:17:07;;;;;;;7.53;2.03;;;18.90;99.90;;;;;;4936807;29;20177;-66
2022/12/22 09:19:35;;;;;;;4.53;1.90;;;18.90;99.90;;;;;;4936868;29;20594;-67
2022/12/22 09:22:03;;;;;;;7.63;2.60;;;18.80;99.90;;;;;;4936677;29;20263;-75
2022/12/22 09:24:30;;;;;;;6.27;2.13;;;18.80;99.90;;;;;;4936793;29;20272;-74
2022/12/22 09:26:57;;;;;;;4.57;2.27;;;18.70;99.90;;;;;;4936782;29;20178;-75
2022/12/22 09:29:25;;;;;;;11.17;2.40;;;18.70;99.90;;;;;;4936889;29;20223;-69
2022/12/22 09:31:52;;;;;;;5.47;2.60;;;18.60;99.90;;;;;;4936818;29;20181;-70
2022/12/22 09:34:20;;;;;;;4.33;1.70;;;18.60;99.90;;;;;;4936683;29;20530;-76
2022/12/22 09:36:47;;;;;;;4.63;1.87;;;18.60;99.90;;;;;;4936434;29;20177;-67
2022/12/22 09:39:15;;;;;;;7.60;2.70;;;18.60;99.90;;;;;;4936617;29;20184;-78
2022/12/22 09:41:49;;;;;;;6.60;2.07;;;18.60;99.90;;;;;;4937089;29;20188;-75
2022/12/22 09:44:27;;;;;;;10.80;2.30;;;18.60;99.90;;;;;;4936342;29;20226;-75
2022/12/22 09:46:57;;;;;;;8.90;2.43;;;18.70;99.90;;;;;;4936411;29;20277;-67
2022/12/22 09:49:25;;;;;;;8.40;2.30;;;18.60;99.90;;;;;;4936436;29;20212;-70
2022/12/22 09:52:03;;;;;;;5.40;1.80;;;18.60;99.90;;;;;;4935857;29;20655;-70
2022/12/22 09:54:31;;;;;;;7.03;2.20;;;18.60;99.90;;;;;;4936937;29;20212;-66
2022/12/22 09:56:58;;;;;;;5.83;2.50;;;18.50;99.90;;;;;;4936142;29;20233;-66
2022/12/22 09:59:28;;;;;;;5.47;2.27;;;18.40;99.90;;;;;;4936498;29;20212;-66
2022/12/22 10:02:03;;;;;;;5.23;2.20;;;18.30;99.90;;;;;;4936468;29;20200;-69
2022/12/22 10:05:10;;;;;;;9.27;2.53;;;18.30;99.90;;;;;;4936513;29;20268;-68
2022/12/22 10:07:41;;;;;;;6.20;1.90;;;18.20;99.90;;;;;;4935998;29;20180;-67
2022/12/22 10:10:27;;;;;;;11.40;2.43;;;18.20;99.90;;;;;;4936240;29;20193;-66
2022/12/22 10:13:03;;;;;;;4.67;1.80;;;18.10;99.90;;;;;;4936005;29;20185;-66
2022/12/22 10:15:38;;;;;;;5.33;2.07;;;18.10;99.90;;;;;;4935951;29;20696;-66
2022/12/22 10:18:18;;;;;;;5.83;1.90;;;18.10;99.90;;;;;;4936156;29;20263;-66
2022/12/22 10:21:05;;;;;;;6.00;1.70;;;18.10;99.90;;;;;;4936224;29;20633;-67
2022/12/22 10:23:39;;;;;;;3.60;1.50;;;18.10;99.90;;;;;;4936162;29;20177;-70
2022/12/22 10:26:09;;;;;;;3.20;1.70;;;18.20;99.90;;;;;;4935939;29;20176;-69
2022/12/22 10:28:45;;;;;;;3.37;1.77;;;18.20;99.90;;;;;;4936181;29;20212;-66
2022/12/22 10:31:18;;;;;;;2.90;1.33;;;18.20;99.90;;;;;;4936057;29;20168;-67
2022/12/22 10:33:48;;;;;;;6.93;2.10;;;18.30;99.90;;;;;;4935936;29;20240;-66
2022/12/22 10:36:30;;;;;;;7.80;2.00;;;18.30;99.90;;;;;;4936298;29;20184;-66
2022/12/22 10:39:06;;;;;;;5.50;1.80;;;18.30;99.90;;;;;;4937767;29;20188;-66
2022/12/22 10:41:49;;;;;;;3.57;2.00;;;18.40;99.90;;;;;;4935920;29;20658;-66
2022/12/22 10:44:16;;;;;;;6.53;2.30;;;18.30;99.90;;;;;;4935784;29;20191;-66
2022/12/22 10:46:53;;;;;;;8.63;2.07;;;18.30;99.90;;;;;;4935885;29;20180;-66
2022/12/22 10:49:33;;;;;;;11.47;2.27;;;18.30;99.90;;;;;;4935832;29;20213;-66
2022/12/22 10:52:23;;;;;;;5.03;2.10;;;18.20;99.90;;;;;;4936132;29;20185;-66
2022/12/22 10:54:50;;;;;;;6.70;2.60;;;18.20;99.90;;;;;;4934393;29;20176;-67
2022/12/22 10:57:17;;;;;;;10.07;2.07;;;18.20;99.90;;;;;;4935585;29;20297;-66
2022/12/22 10:59:49;;;;;;;6.17;2.10;;;18.30;99.90;;;;;;4935576;29;20181;-66
2022/12/22 11:02:45;;;;;;;7.87;2.20;;;18.30;99.90;;;;;;4936369;29;20211;-66
2022/12/22 11:05:13;;;;;;;5.10;1.87;;;18.20;99.90;;;;;;4935757;29;20680;-67
2022/12/22 11:07:42;;;;;;;6.20;2.13;;;18.30;99.90;;;;;;4939420;29;20181;-66
2022/12/22 11:10:41;;;;;;;4.77;2.67;;;18.20;99.90;;;;;;4939925;29;20211;-68
2022/12/22 11:13:34;;;;;;;7.80;2.80;;;18.20;99.90;;;;;;4939660;29;20187;-66
2022/12/22 11:16:16;;;;;;;10.87;2.57;;;18.10;99.90;;;;;;4939514;29;20185;-66
2022/12/22 11:19:11;;;;;;;4.90;2.10;;;18.00;99.90;;;;;;4939378;29;20184;-66
2022/12/22 11:21:50;;;;;;;9.27;2.30;;;18.00;99.90;;;;;;4939645;29;20181;-66
2022/12/22 11:24:26;;;;;;;4.90;1.90;;;18.00;99.90;;;;;;4939307;29;20544;-66
2022/12/22 11:27:02;;;;;;;4.60;2.03;;;17.90;99.90;;;;;;4939324;29;20176;-66
2022/12/22 11:29:48;;;;;;;6.73;1.90;;;17.90;99.90;;;;;;4939705;29;20242;-66
2022/12/22 11:32:54;;;;;;;7.17;2.40;;;17.90;99.90;;;;;;4939107;29;20576;-69
2022/12/22 11:35:43;;;;;;;8.13;2.70;;;17.90;99.90;;;;;;4939028;29;20211;-65
2022/12/22 11:38:23;;;;;;;7.80;2.43;;;17.90;99.90;;;;;;4939263;29;20247;-67
2022/12/22 11:41:03;;;;;;;6.50;2.50;;;17.80;99.90;;;;;;4939384;29;20186;-66
2022/12/22 11:44:05;;;;;;;5.57;2.60;;;17.80;99.90;;;;;;4939045;29;20179;-68
2022/12/22 11:46:45;;;;;;;7.73;2.30;;;17.80;99.90;;;;;;4938918;29;20591;-68
2022/12/22 11:49:30;;;;;;;7.90;3.30;;;17.70;99.90;;;;;;4938964;29;20250;-66
2022/12/22 11:51:58;;;;;;;7.80;2.80;;;17.70;99.90;;;;;;4939185;29;20179;-66
2022/12/22 11:54:49;;;;;;;5.37;2.40;;;17.60;99.90;;;;;;4938971;29;20182;-68
2022/12/22 11:57:41;;;;;;;6.20;2.33;;;17.60;99.90;;;;;;4938686;29;20231;-66
2022/12/22 12:00:13;;;;;;;6.33;2.23;;;17.50;99.90;;;;;;4938788;29;20185;-65
2022/12/22 12:03:06;;;;;;;5.10;2.13;;;17.40;99.90;;;;;;4937416;29;20674;-67
2022/12/22 12:06:03;;;;;;;4.07;1.90;;;17.40;99.90;;;;;;4938822;29;20172;-66
2022/12/22 12:08:47;;;;;;;4.23;1.70;;;17.40;99.90;;;;;;4938836;29;20306;-66
2022/12/22 12:11:41;;;;;;;3.90;2.40;;;17.40;99.90;;;;;;4939229;29;20185;-69
2022/12/22 12:14:33;;;;;;;5.47;2.23;;;17.40;99.90;;;;;;4937161;29;20184;-66
2022/12/22 12:17:03;;;;;;;2.23;1.47;;;17.30;99.90;;;;;;4938774;29;20185;-67
2022/12/22 12:19:41;;;;;;;3.30;1.73;;;17.30;99.90;;;;;;4938748;29;20180;-66
2022/12/22 12:22:21;;;;;;;8.73;2.10;;;17.30;99.90;;;;;;4938305;29;20595;-66
2022/12/22 12:25:10;;;;;;;3.30;1.90;;;17.30;99.90;;;;;;4938192;29;20212;-67
2022/12/22 12:27:57;;;;;;;4.87;2.00;;;17.30;99.90;;;;;;4938292;29;20184;-66
2022/12/22 12:30:26;;;;;;;3.07;1.80;;;17.30;99.90;;;;;;4928324;29;20675;-66
2022/12/22 12:33:02;;;;;;;6.37;1.83;;;17.30;99.90;;;;;;4938234;29;20176;-66
2022/12/22 12:35:35;;;;;;;6.17;2.30;;;17.40;99.90;;;;;;4938269;29;20180;-66
2022/12/22 12:38:31;;;;;;;5.20;2.10;;;17.40;99.90;;;;;;4938498;29;20677;-66
2022/12/22 12:41:13;;;;;;;9.40;2.50;;;17.40;99.90;;;;;;4938890;29;20257;-66
2022/12/22 12:43:42;;;;;;;2.30;1.70;;;17.30;99.90;;;;;;4938220;29;20219;-67
2022/12/22 12:46:47;;;;;;;5.60;2.10;;;17.30;99.90;;;;;;4938084;29;20319;-67
2022/12/22 12:49:36;;;;;;;6.87;2.40;;;17.20;99.90;;;;;;4935468;29;20286;-67
2022/12/22 12:52:05;;;;;;;5.40;3.30;;;17.20;99.90;;;;;;4937982;29;20255;-67
2022/12/22 12:54:33;;;;;;;6.27;2.90;;;17.20;99.90;;;;;;4937904;29;20173;-67
2022/12/22 12:57:10;;;;;;;8.53;3.20;;;17.20;99.90;;;;;;4936442;29;20323;-67
2022/12/22 12:59:40;;;;;;;4.43;2.70;;;17.20;99.90;;;;;;4937865;29;20643;-67
2022/12/22 13:02:39;;;;;;;4.07;2.67;;;17.20;99.90;;;;;;4937925;29;20173;-66
2022/12/22 13:05:12;;;;;;;5.83;2.90;;;17.20;99.90;;;;;;4938010;29;20181;-70
2022/12/22 13:08:03;;;;;;;5.17;2.50;;;17.30;99.90;;;;;;4937635;29;20548;-67
2022/12/22 13:10:32;;;;;;;9.13;2.90;;;17.30;99.90;;;;;;4937189;29;20566;-70
2022/12/22 13:12:59;;;;;;;11.60;4.37;;;17.30;99.90;;;;;;4937473;29;20189;-68
2022/12/22 13:15:32;;;;;;;6.53;3.70;;;17.30;99.90;;;;;;4936582;29;20258;-67
2022/12/22 13:18:01;;;;;;;5.27;3.53;;;17.40;99.90;;;;;;4937446;29;20183;-68
2022/12/22 13:20:36;;;;;;;5.07;3.30;;;17.40;99.90;;;;;;4937498;29;20177;-68
2022/12/22 13:23:10;;;;;;;5.57;2.90;;;17.50;99.90;;;;;;4937246;29;20191;-68
2022/12/22 13:25:57;;;;;;;7.23;2.90;;;17.50;99.90;;;;;;4937131;29;20188;-68
2022/12/22 13:28:26;;;;;;;10.13;3.13;;;17.50;99.90;;;;;;4936170;29;20698;-67
2022/12/22 13:31:05;;;;;;;7.73;2.90;;;17.40;99.90;;;;;;4937004;29;20188;-68
2022/12/22 13:33:38;;;;;;;5.60;2.83;;;17.30;99.90;;;;;;4937165;29;20197;-67
2022/12/22 13:36:14;;;;;;;6.43;2.50;;;17.30;99.90;;;;;;4936805;29;20203;-68
2022/12/22 13:38:42;;;;;;;4.67;2.40;;;17.20;99.90;;;;;;4937025;29;20195;-67
2022/12/22 13:41:20;;;;;;;4.27;2.40;;;17.10;99.90;;;;;;4937124;29;20188;-68
2022/12/22 13:43:55;;;;;;;4.90;2.67;;;17.10;99.90;;;;;;4937110;29;20231;-69
2022/12/22 13:46:23;;;;;;;5.30;2.50;;;17.00;99.90;;;;;;4937137;29;20177;-68
2022/12/22 13:48:54;;;;;;;6.73;3.00;;;16.90;99.90;;;;;;4937067;29;20295;-68
2022/12/22 13:51:34;;;;;;;8.93;2.80;;;16.90;99.90;;;;;;4936633;29;20624;-69
2022/12/22 13:54:27;;;;;;;6.10;3.20;;;16.80;99.90;;;;;;4936779;29;20205;-68
2022/12/22 13:56:56;;;;;;;6.03;2.37;;;16.80;99.90;;;;;;4935927;29;20628;-68
2022/12/22 13:59:40;;;;;;;6.83;2.93;;;16.80;99.90;;;;;;4937035;29;20184;-68
2022/12/22 14:02:11;;;;;;;8.27;3.17;;;16.80;99.90;;;;;;4936191;29;20172;-69
2022/12/22 14:04:42;;;;;;;3.87;2.50;;;16.80;99.90;;;;;;4936701;29;20180;-68
2022/12/22 14:07:15;;;;;;;6.07;2.40;;;16.80;99.90;;;;;;4936529;29;20169;-69
2022/12/22 14:09:48;;;;;;;5.57;2.73;;;16.80;99.90;;;;;;4936455;29;20263;-68
2022/12/22 14:12:20;;;;;;;7.93;3.10;;;16.80;99.90;;;;;;4936378;29;20184;-68
2022/12/22 14:14:50;;;;;;;5.90;2.30;;;16.80;99.90;;;;;;4936673;29;20180;-67
2022/12/22 14:17:25;;;;;;;7.00;2.77;;;16.80;99.90;;;;;;4935992;29;20275;-69
2022/12/22 14:19:56;;;;;;;6.03;2.30;;;16.70;99.90;;;;;;4919296;29;20189;-69
2022/12/22 14:22:45;;;;;;;3.87;2.07;;;16.70;99.90;;;;;;4936282;29;20189;-68
2022/12/22 14:25:16;;;;;;;5.60;2.40;;;16.70;99.90;;;;;;4917462;29;20191;-69
2022/12/22 14:27:47;;;;;;;4.83;2.60;;;16.70;99.90;;;;;;4917438;29;20181;-67
2022/12/22 14:30:20;;;;;;;4.03;2.37;;;16.70;99.90;;;;;;4917366;29;20543;-68
2022/12/22 14:32:55;;;;;;;4.30;2.70;;;16.60;99.90;;;;;;4926070;29;20176;-68
2022/12/22 14:35:25;;;;;;;5.73;3.00;;;16.60;99.90;;;;;;4936167;29;20184;-68
2022/12/22 14:38:23;;;;;;;7.17;2.70;;;16.50;99.90;;;;;;4936054;29;20174;-67
2022/12/22 14:40:53;;;;;;;4.90;3.10;;;16.50;99.90;;;;;;4934639;29;20182;-66
2022/12/22 14:43:21;;;;;;;4.47;2.47;;;16.50;99.90;;;;;;4935894;29;20268;-70
2022/12/22 14:45:50;;;;;;;6.73;2.50;;;16.50;99.90;;;;;;4935607;29;20188;-67
2022/12/22 14:48:45;;;;;;;8.37;3.20;;;16.50;99.90;;;;;;4935896;29;20274;-68
2022/12/22 14:51:20;;;;;;;5.70;2.80;;;16.50;99.90;;;;;;4935880;29;20741;-69
2022/12/22 14:53:57;;;;;;;5.87;2.80;;;16.50;99.90;;;;;;4935915;29;20187;-70
2022/12/22 14:56:29;;;;;;;6.20;2.90;;;16.60;99.90;;;;;;4935482;29;20191;-70
2022/12/22 14:59:21;;;;;;;9.93;3.00;;;16.60;99.90;;;;;;4935730;29;20203;-68
2022/12/22 15:02:21;;;;;;;6.17;2.70;;;16.60;99.90;;;;;;4935939;29;20185;-68
2022/12/22 15:05:05;;;;;;;3.97;2.37;;;16.50;99.90;;;;;;4936455;29;20184;-68
2022/12/22 15:07:44;;;;;;;6.83;2.57;;;16.50;99.90;;;;;;4935763;29;20239;-68
2022/12/22 15:10:12;;;;;;;6.20;2.40;;;16.40;99.90;;;;;;4935394;29;20248;-67
2022/12/22 15:12:40;;;;;;;6.57;2.93;;;16.40;99.90;;;;;;4935732;29;20202;-69
2022/12/22 15:15:22;;;;;;;5.87;2.90;;;16.40;99.90;;;;;;4935802;29;20714;-67
2022/12/22 15:17:52;;;;;;;7.10;2.77;;;16.40;99.90;;;;;;4935587;29;20196;-69
2022/12/22 15:20:23;;;;;;;9.00;3.03;;;16.40;99.90;;;;;;4935708;29;20172;-70
2022/12/22 15:22:51;;;;;;;9.47;2.50;;;16.50;99.90;;;;;;4935733;29;20169;-67
2022/12/22 15:25:24;;;;;;;7.30;3.17;;;16.50;99.90;;;;;;4935100;29;20275;-67
2022/12/22 15:27:52;;;;;;;7.53;2.83;;;16.50;99.90;;;;;;4935390;29;20193;-67
2022/12/22 15:30:21;;;;;;;6.07;2.60;;;16.60;99.90;;;;;;4935276;29;20679;-68
2022/12/22 15:32:49;;;;;;;4.10;2.60;;;16.60;99.90;;;;;;4935267;29;20184;-69
2022/12/22 15:35:30;;;;;;;5.23;2.53;;;16.70;99.90;;;;;;4935360;29;20181;-68
2022/12/22 15:37:58;;;;;;;7.07;2.63;;;16.70;99.90;;;;;;4935420;29;20272;-69
2022/12/22 15:40:27;;;;;;;3.60;2.47;;;16.70;99.90;;;;;;4934336;29;20185;-69
2022/12/22 15:42:55;;;;;;;5.83;2.90;;;16.70;99.90;;;;;;4935716;29;20176;-69
2022/12/22 15:45:23;;;;;;;5.43;2.30;;;16.80;99.90;;;;;;4935570;29;20547;-69
2022/12/22 15:47:52;;;;;;;4.03;2.90;;;16.80;99.90;;;;;;4935217;29;20268;-67
2022/12/22 15:50:39;;;;;;;4.93;2.73;;;16.90;99.90;;;;;;4936219;29;20595;-68
2022/12/22 15:53:08;;;;;;;7.57;3.13;;;16.90;99.90;;;;;;4938263;29;20281;-67
2022/12/22 15:55:41;;;;;;;8.37;3.23;;;17.00;99.90;;;;;;4937868;29;20195;-68
2022/12/22 15:58:19;;;;;;;6.37;2.67;;;17.00;99.90;;;;;;4938820;29;20227;-68
2022/12/22 16:00:47;;;;;;;4.67;2.80;;;17.00;99.90;;;;;;4939017;29;20210;-69
2022/12/22 16:03:15;;;;;;;5.93;2.40;;;17.00;99.90;;;;;;4937311;29;20182;-70
2022/12/22 16:05:45;;;;;;;3.77;2.73;;;17.10;99.90;;;;;;4938924;29;20659;-70
2022/12/22 16:08:47;;;;;;;3.70;2.70;;;17.10;99.90;;;;;;4938479;29;20200;-68
2022/12/22 16:11:15;;;;;;;4.43;2.47;;;17.20;99.90;;;;;;4911859;29;20537;-68
2022/12/22 16:13:43;;;;;;;7.90;2.80;;;17.20;99.90;;;;;;4938539;29;20185;-69
2022/12/22 16:16:11;;;;;;;5.43;2.50;;;17.20;99.90;;;;;;4937791;29;20180;-68
2022/12/22 16:18:39;;;;;;;6.80;2.87;;;17.20;99.90;;;;;;4938829;29;20271;-68
2022/12/22 16:21:18;;;;;;;5.43;2.77;;;17.20;99.90;;;;;;4938209;29;20194;-70
2022/12/22 16:23:49;;;;;;;5.73;2.60;;;17.20;99.90;;;;;;4938347;29;20207;-70
2022/12/22 16:26:19;;;;;;;5.07;2.80;;;17.20;99.90;;;;;;4938400;29;20192;-68
2022/12/22 16:28:47;;;;;;;6.33;2.30;;;17.20;99.90;;;;;;4937972;29;20235;-68
2022/12/22 16:31:26;;;;;;;5.77;2.70;;;17.10;99.90;;;;;;4938169;29;20225;-67
2022/12/22 16:33:53;;;;;;;5.77;2.90;;;17.10;99.90;;;;;;4938257;29;20188;-67
2022/12/22 16:36:21;;;;;;;6.03;3.10;;;17.20;99.90;;;;;;4938154;29;20177;-67
2022/12/22 16:38:49;;;;;;;10.73;2.87;;;17.20;99.90;;;;;;4937903;29;20271;-67
2022/12/22 16:41:26;;;;;;;5.67;2.77;;;17.10;99.90;;;;;;4937939;29;20222;-68
2022/12/22 16:43:56;;;;;;;6.00;2.83;;;17.20;99.90;;;;;;4938084;29;20180;-68
2022/12/22 16:46:24;;;;;;;5.60;2.70;;;17.20;99.90;;;;;;4937977;29;20209;-67
2022/12/22 16:49:01;;;;;;;4.33;2.50;;;17.20;99.90;;;;;;4937575;29;20216;-68
2022/12/22 16:51:33;;;;;;;6.30;3.40;;;17.20;99.90;;;;;;4937885;29;20180;-67